createdAt,value
2019-03-01T00:00:03.511Z,20.90
2019-03-01T00:02:44.301Z,16.17
2019-03-01T00:05:25.461Z,17.20
2019-03-01T00:08:05.746Z,16.70
2019-03-01T00:10:46.196Z,23.73
2019-03-01T00:13:27.033Z,23.10
2019-03-01T00:16:07.568Z,28.43
2019-03-01T00:18:48.085Z,18.60
2019-03-01T00:21:29.104Z,22.87
2019-03-01T00:24:37.537Z,22.07
2019-03-01T00:27:44.639Z,12.60
2019-03-01T00:30:51.741Z,19.63
2019-03-01T00:33:58.822Z,16.83
2019-03-01T00:37:07.332Z,26.33
2019-03-01T00:40:14.411Z,17.97
2019-03-01T00:43:21.541Z,19.90
2019-03-01T00:46:09.302Z,12.80
2019-03-01T00:48:50.254Z,20.60
2019-03-01T00:51:30.833Z,14.27
2019-03-01T00:54:11.889Z,10.97
2019-03-01T00:56:52.955Z,9.10
2019-03-01T00:59:33.662Z,12.97
2019-03-01T01:02:14.592Z,11.07
2019-03-01T01:04:55.310Z,16.37
2019-03-01T01:07:36.099Z,14.50
2019-03-01T01:10:16.992Z,11.07
2019-03-01T01:12:57.443Z,9.57
2019-03-01T01:15:38.022Z,12.47
2019-03-01T01:18:18.945Z,17.83
2019-03-01T01:20:59.671Z,16.03
2019-03-01T01:23:40.430Z,10.43
2019-03-01T01:26:20.876Z,21.13
2019-03-01T01:29:01.225Z,15.60
2019-03-01T01:31:42.081Z,13.80
2019-03-01T01:34:22.988Z,13.20
2019-03-01T01:37:03.398Z,12.60
2019-03-01T01:39:44.473Z,12.50
2019-03-01T01:42:25.038Z,8.80
2019-03-01T01:45:05.631Z,16.67
2019-03-01T01:47:45.890Z,23.03
2019-03-01T01:50:26.311Z,12.20
2019-03-01T01:53:07.269Z,19.20
2019-03-01T01:55:48.087Z,17.20
2019-03-01T01:58:29.062Z,12.03
2019-03-01T02:01:09.953Z,14.30
2019-03-01T02:03:50.560Z,19.73
2019-03-01T02:06:31.177Z,11.77
2019-03-01T02:09:12.502Z,12.37
2019-03-01T02:11:52.823Z,21.53
2019-03-01T02:14:33.322Z,20.23
2019-03-01T02:17:14.094Z,14.77
2019-03-01T02:19:54.667Z,13.13
2019-03-01T02:22:35.062Z,13.37
2019-03-01T02:25:15.904Z,15.20
2019-03-01T02:27:56.747Z,13.00
2019-03-01T02:30:37.458Z,9.80
2019-03-01T02:33:05.878Z,20.20
2019-03-01T02:35:53.702Z,11.33
2019-03-01T02:38:41.510Z,9.90
2019-03-01T02:41:29.284Z,20.40
2019-03-01T02:44:17.045Z,15.27
2019-03-01T02:46:58.013Z,10.67
2019-03-01T02:49:38.712Z,21.47
2019-03-01T02:52:19.541Z,14.07
2019-03-01T02:55:00.557Z,12.73
2019-03-01T02:57:41.169Z,8.10
2019-03-01T03:00:21.501Z,8.23
2019-03-01T03:03:02.263Z,10.83
2019-03-01T03:05:44.474Z,10.10
2019-03-01T03:08:24.766Z,17.40
2019-03-01T03:11:05.677Z,17.10
2019-03-01T03:13:46.388Z,10.80
2019-03-01T03:16:27.349Z,15.43
2019-03-01T03:19:08.302Z,11.33
2019-03-01T03:21:48.552Z,8.73
2019-03-01T03:24:29.483Z,9.93
2019-03-01T03:27:10.438Z,12.90
2019-03-01T03:29:51.122Z,15.83
2019-03-01T03:32:31.901Z,9.80
2019-03-01T03:35:12.637Z,15.07
2019-03-01T03:37:53.367Z,11.00
2019-03-01T03:40:33.979Z,7.07
2019-03-01T03:43:14.707Z,12.90
2019-03-01T03:45:54.962Z,9.57
2019-03-01T03:48:36.560Z,17.33
2019-03-01T03:51:17.724Z,9.50
2019-03-01T03:53:58.537Z,11.40
2019-03-01T03:56:39.602Z,10.73
2019-03-01T03:59:20.385Z,13.53
2019-03-01T04:02:01.404Z,9.40
2019-03-01T04:04:42.271Z,8.70
2019-03-01T04:07:22.513Z,12.17
2019-03-01T04:10:03.395Z,12.43
2019-03-01T04:12:43.946Z,7.53
2019-03-01T04:15:24.552Z,14.73
2019-03-01T04:18:05.204Z,10.97
2019-03-01T04:20:45.937Z,16.13
2019-03-01T04:23:26.824Z,13.10
2019-03-01T04:26:07.542Z,9.33
2019-03-01T04:28:48.107Z,9.40
2019-03-01T04:31:29.064Z,15.20
2019-03-01T04:34:09.860Z,16.53
2019-03-01T04:36:50.583Z,10.30
2019-03-01T04:39:31.520Z,13.80
2019-03-01T04:42:12.355Z,14.10
2019-03-01T04:44:53.467Z,13.60
2019-03-01T04:47:34.524Z,14.07
2019-03-01T04:50:15.197Z,23.23
2019-03-01T04:52:55.891Z,11.50
2019-03-01T04:55:36.901Z,8.60
2019-03-01T04:58:17.800Z,9.30
2019-03-01T05:00:58.679Z,8.20
2019-03-01T05:03:39.383Z,6.80
2019-03-01T05:06:20.119Z,9.90
2019-03-01T05:09:00.758Z,12.90
2019-03-01T05:11:41.256Z,19.93
2019-03-01T05:14:22.348Z,12.33
2019-03-01T05:17:03.169Z,10.43
2019-03-01T05:19:43.738Z,9.03
2019-03-01T05:22:24.666Z,13.10
2019-03-01T05:25:05.603Z,17.03
2019-03-01T05:27:46.592Z,10.00
2019-03-01T05:30:27.417Z,13.97
2019-03-01T05:33:08.495Z,20.83
2019-03-01T05:35:49.356Z,22.47
2019-03-01T05:38:30.079Z,10.03
2019-03-01T05:41:10.819Z,16.63
2019-03-01T05:43:51.520Z,7.67
2019-03-01T05:46:32.095Z,9.93
2019-03-01T05:49:12.712Z,12.00
2019-03-01T05:51:53.716Z,16.83
2019-03-01T05:54:34.706Z,9.80
2019-03-01T05:57:03.128Z,10.63
2019-03-01T05:59:31.573Z,14.67
2019-03-01T06:02:17.756Z,11.80
2019-03-01T06:04:49.293Z,15.73
2019-03-01T06:07:20.798Z,11.03
2019-03-01T06:10:09.927Z,12.33
2019-03-01T06:12:47.164Z,12.23
2019-03-01T06:15:35.146Z,10.60
2019-03-01T06:18:09.348Z,9.47
2019-03-01T06:20:41.128Z,10.97
2019-03-01T06:23:15.393Z,14.97
2019-03-01T06:25:52.327Z,12.47
2019-03-01T06:28:48.782Z,15.03
2019-03-01T06:31:55.864Z,8.77
2019-03-01T06:35:02.974Z,12.27
2019-03-01T06:38:11.706Z,14.83
2019-03-01T06:41:20.463Z,21.77
2019-03-01T06:44:28.953Z,9.43
2019-03-01T06:47:36.042Z,9.40
2019-03-01T06:50:36.412Z,14.13
2019-03-01T06:53:16.819Z,9.67
2019-03-01T06:55:57.637Z,15.90
2019-03-01T06:58:38.429Z,8.17
2019-03-01T07:01:19.737Z,9.10
2019-03-01T07:04:02.356Z,13.70
2019-03-01T07:06:43.359Z,10.80
2019-03-01T07:09:24.210Z,8.83
2019-03-01T07:12:05.079Z,11.57
2019-03-01T07:14:45.736Z,10.60
2019-03-01T07:17:26.263Z,4.77
2019-03-01T07:20:08.643Z,5.70
2019-03-01T07:22:49.157Z,7.43
2019-03-01T07:25:29.724Z,11.33
2019-03-01T07:28:10.600Z,10.37
2019-03-01T07:30:51.239Z,5.37
2019-03-01T07:33:32.100Z,5.80
2019-03-01T07:36:12.805Z,9.90
2019-03-01T07:38:53.255Z,9.63
2019-03-01T07:41:33.869Z,13.40
2019-03-01T07:44:14.793Z,8.00
2019-03-01T07:46:55.815Z,8.63
2019-03-01T07:49:36.601Z,9.07
2019-03-01T07:52:16.968Z,9.07
2019-03-01T07:54:57.839Z,7.07
2019-03-01T07:57:38.207Z,7.77
2019-03-01T08:00:53.168Z,9.23
2019-03-01T08:03:36.289Z,7.23
2019-03-01T08:06:24.051Z,6.87
2019-03-01T08:09:12.307Z,8.53
2019-03-01T08:12:00.080Z,7.53
2019-03-01T08:14:47.840Z,8.37
2019-03-01T08:17:35.632Z,10.90
2019-03-01T08:20:23.395Z,7.53
2019-03-01T08:23:11.177Z,10.80
2019-03-01T08:25:59.913Z,7.77
2019-03-01T08:28:48.460Z,8.53
2019-03-01T08:31:36.224Z,10.43
2019-03-01T08:34:24.024Z,7.40
2019-03-01T08:37:14.433Z,8.17
2019-03-01T08:40:01.276Z,14.60
2019-03-01T08:42:49.067Z,7.97
2019-03-01T08:45:36.823Z,15.00
2019-03-01T08:48:17.920Z,8.10
2019-03-01T08:50:58.711Z,8.87
2019-03-01T08:53:39.647Z,6.40
2019-03-01T08:56:26.081Z,4.67
2019-03-01T08:59:02.392Z,10.20
2019-03-01T09:01:45.045Z,8.07
2019-03-01T09:04:26.115Z,6.90
2019-03-01T09:07:06.864Z,6.40
2019-03-01T09:09:47.768Z,9.20
2019-03-01T09:12:28.262Z,13.70
2019-03-01T09:15:08.791Z,7.57
2019-03-01T09:17:49.811Z,11.43
2019-03-01T09:20:32.547Z,7.60
2019-03-01T09:23:23.533Z,8.33
2019-03-01T09:25:55.678Z,8.33
2019-03-01T09:28:24.120Z,7.83
2019-03-01T09:31:11.879Z,9.17
2019-03-01T09:33:59.663Z,8.07
2019-03-01T09:40:05.086Z,5.37
2019-03-01T09:42:47.409Z,9.03
2019-03-01T09:45:36.591Z,13.00
2019-03-01T09:48:17.304Z,5.57
2019-03-01T09:50:57.984Z,6.60
2019-03-01T09:53:38.507Z,6.33
2019-03-01T09:56:19.400Z,10.70
2019-03-01T09:59:00.092Z,6.73
2019-03-01T10:01:41.048Z,9.27
2019-03-01T10:04:21.834Z,10.20
2019-03-01T10:07:02.494Z,11.20
2019-03-01T10:09:43.285Z,5.70
2019-03-01T10:12:23.721Z,6.67
2019-03-01T10:15:04.671Z,6.80
2019-03-01T10:17:45.487Z,8.53
2019-03-01T10:20:26.224Z,7.67
2019-03-01T10:23:07.082Z,6.43
2019-03-01T10:25:47.533Z,6.13
2019-03-01T10:28:28.036Z,9.10
2019-03-01T10:31:08.839Z,8.03
2019-03-01T10:33:49.650Z,5.30
2019-03-01T10:36:30.150Z,6.13
2019-03-01T10:39:11.087Z,6.50
2019-03-01T10:41:51.939Z,6.53
2019-03-01T10:44:32.932Z,4.67
2019-03-01T10:47:13.599Z,5.67
2019-03-01T10:49:53.998Z,3.53
2019-03-01T10:52:35.140Z,9.67
2019-03-01T10:55:16.027Z,5.47
2019-03-01T10:57:56.855Z,8.53
2019-03-01T11:00:37.490Z,3.90
2019-03-01T11:03:18.171Z,4.20
2019-03-01T11:05:59.118Z,4.13
2019-03-01T11:08:40.075Z,3.53
2019-03-01T11:11:20.612Z,3.00
2019-03-01T11:14:01.345Z,4.57
2019-03-01T11:16:41.991Z,2.80
2019-03-01T11:19:23.039Z,3.90
2019-03-01T11:22:03.413Z,6.23
2019-03-01T11:24:44.223Z,2.73
2019-03-01T11:27:25.060Z,8.87
2019-03-01T11:30:05.576Z,2.80
2019-03-01T11:32:46.160Z,4.53
2019-03-01T11:35:27.060Z,3.40
2019-03-01T11:38:07.640Z,2.53
2019-03-01T11:40:48.567Z,3.20
2019-03-01T11:43:29.491Z,5.03
2019-03-01T11:46:10.230Z,2.60
2019-03-01T11:48:51.007Z,2.07
2019-03-01T11:51:19.463Z,6.60
2019-03-01T11:54:07.377Z,3.07
2019-03-01T11:56:55.153Z,2.70
2019-03-01T11:59:42.935Z,2.30
2019-03-01T12:02:30.727Z,6.07
2019-03-01T12:05:18.667Z,2.73
2019-03-01T12:08:06.465Z,2.53
2019-03-01T12:10:54.230Z,3.03
2019-03-01T12:13:42.024Z,2.70
2019-03-01T12:16:29.782Z,2.70
2019-03-01T12:19:17.565Z,2.33
2019-03-01T12:22:05.357Z,4.50
2019-03-01T12:24:53.145Z,2.80
2019-03-01T12:27:40.721Z,2.60
2019-03-01T12:30:28.522Z,2.87
2019-03-01T12:33:16.298Z,2.33
2019-03-01T12:36:04.136Z,2.90
2019-03-01T12:38:52.002Z,10.37
2019-03-01T12:41:39.753Z,3.23
2019-03-01T12:44:27.527Z,4.60
2019-03-01T12:47:15.573Z,2.87
2019-03-01T12:49:56.671Z,4.50
2019-03-01T12:52:37.722Z,2.07
2019-03-01T12:55:18.099Z,4.27
2019-03-01T12:57:58.266Z,15.33
2019-03-01T13:00:39.139Z,3.50
2019-03-01T13:03:09.017Z,2.93
2019-03-01T13:05:57.076Z,3.33
2019-03-01T13:08:47.773Z,4.33
2019-03-01T13:11:34.346Z,7.50
2019-03-01T13:14:22.135Z,6.60
2019-03-01T13:16:50.567Z,10.83
2019-03-01T13:19:38.376Z,7.43
2019-03-01T13:22:27.912Z,4.80
2019-03-01T13:25:15.850Z,6.50
2019-03-01T13:28:03.716Z,6.37
2019-03-01T13:30:51.503Z,6.93
2019-03-01T13:33:19.944Z,7.03
2019-03-01T13:36:07.739Z,6.97
2019-03-01T13:38:55.524Z,7.13
2019-03-01T13:41:43.304Z,7.93
2019-03-01T13:44:31.135Z,5.53
2019-03-01T13:47:18.928Z,8.50
2019-03-01T13:50:26.020Z,7.10
2019-03-01T13:53:13.824Z,7.13
2019-03-01T13:56:01.606Z,6.63
2019-03-01T13:58:49.369Z,5.80
2019-03-01T14:01:37.157Z,5.97
2019-03-01T14:04:24.918Z,5.83
2019-03-01T14:07:05.379Z,4.83
2019-03-01T14:09:46.030Z,11.73
2019-03-01T14:12:27.021Z,8.53
2019-03-01T14:15:07.999Z,5.10
2019-03-01T14:17:48.739Z,10.13
2019-03-01T14:20:29.238Z,11.33
2019-03-01T14:23:10.165Z,5.23
2019-03-01T14:25:50.821Z,7.40
2019-03-01T14:28:31.662Z,5.53
2019-03-01T14:31:12.482Z,7.50
2019-03-01T14:33:53.315Z,7.13
2019-03-01T14:36:34.055Z,7.17
2019-03-01T14:39:14.651Z,8.73
2019-03-01T14:41:55.521Z,9.20
2019-03-01T14:44:23.955Z,6.87
2019-03-01T14:46:52.882Z,7.13
2019-03-01T14:49:35.382Z,9.00
2019-03-01T14:52:18.262Z,4.93
2019-03-01T14:54:58.568Z,6.87
2019-03-01T14:57:39.227Z,7.23
2019-03-01T15:00:19.764Z,5.37
2019-03-01T15:03:00.371Z,5.30
2019-03-01T15:05:42.019Z,6.13
2019-03-01T15:08:23.264Z,4.00
2019-03-01T15:11:04.291Z,4.60
2019-03-01T15:13:46.624Z,5.10
2019-03-01T15:16:27.499Z,4.13
2019-03-01T15:19:09.113Z,3.20
2019-03-01T15:21:50.116Z,4.37
2019-03-01T15:24:33.298Z,2.87
2019-03-01T15:27:13.460Z,5.67
2019-03-01T15:29:54.427Z,6.30
2019-03-01T15:32:36.178Z,3.33
2019-03-01T15:35:17.333Z,4.60
2019-03-01T15:37:58.040Z,5.37
2019-03-01T15:40:39.072Z,7.30
2019-03-01T15:43:20.207Z,8.63
2019-03-01T15:46:01.087Z,5.20
2019-03-01T15:48:42.200Z,6.47
2019-03-01T15:51:23.136Z,8.73
2019-03-01T15:54:04.014Z,8.23
2019-03-01T15:56:44.671Z,8.00
2019-03-01T15:59:25.565Z,10.30
2019-03-01T16:02:06.084Z,9.27
2019-03-01T16:04:46.788Z,13.47
2019-03-01T16:07:29.014Z,14.27
2019-03-01T16:10:10.543Z,17.97
2019-03-01T16:12:51.471Z,16.73
2019-03-01T16:15:34.900Z,19.00
2019-03-01T16:18:14.472Z,20.03
2019-03-01T16:20:55.274Z,21.90
2019-03-01T16:23:36.224Z,22.00
2019-03-01T16:26:17.327Z,22.13
2019-03-01T16:28:58.400Z,27.23
2019-03-01T16:31:39.360Z,24.90
2019-03-01T16:34:20.236Z,35.27
2019-03-01T16:37:00.972Z,34.60
2019-03-01T16:39:41.744Z,42.63
2019-03-01T16:42:22.764Z,39.50
2019-03-01T16:45:03.611Z,47.57
2019-03-01T16:47:44.307Z,45.17
2019-03-01T16:50:25.423Z,43.07
2019-03-01T16:53:06.207Z,46.13
2019-03-01T16:55:46.624Z,47.30
2019-03-01T16:58:15.056Z,52.77
2019-03-01T17:01:02.833Z,55.43
2019-03-01T17:03:52.770Z,56.37
2019-03-01T17:06:40.097Z,53.03
2019-03-01T17:09:27.863Z,59.80
2019-03-01T17:12:16.618Z,66.67
2019-03-01T17:15:25.850Z,66.37
2019-03-01T17:18:13.616Z,62.97
2019-03-01T17:21:01.397Z,65.30
2019-03-01T17:23:49.157Z,79.23
2019-03-01T17:26:38.976Z,77.13
2019-03-01T17:29:26.434Z,78.10
2019-03-01T17:32:14.205Z,79.90
2019-03-01T17:35:04.879Z,79.97
2019-03-01T17:37:51.483Z,77.23
2019-03-01T17:40:39.255Z,83.23
2019-03-01T17:43:29.651Z,81.43
2019-03-01T17:46:16.590Z,85.10
2019-03-01T17:48:57.378Z,75.87
2019-03-01T17:51:38.492Z,87.47
2019-03-01T17:54:22.304Z,82.50
2019-03-01T17:57:01.918Z,87.50
2019-03-01T17:59:44.608Z,89.33
2019-03-01T18:02:25.231Z,80.53
2019-03-01T18:05:06.335Z,81.43
2019-03-01T18:07:34.769Z,84.70
2019-03-01T18:10:22.535Z,90.63
2019-03-01T18:13:10.316Z,81.87
2019-03-01T18:15:58.079Z,75.40
2019-03-01T18:18:49.119Z,81.63
2019-03-01T18:21:35.359Z,81.07
2019-03-01T18:24:23.135Z,79.50
2019-03-01T18:27:12.232Z,78.13
2019-03-01T18:30:00.442Z,85.77
2019-03-01T18:32:48.213Z,83.83
2019-03-01T18:35:35.980Z,78.70
2019-03-01T18:38:23.760Z,88.87
2019-03-01T18:41:11.524Z,85.40
2019-03-01T18:43:59.304Z,92.67
2019-03-01T18:46:47.080Z,79.73
2019-03-01T18:49:27.864Z,82.97
2019-03-01T18:52:08.350Z,90.07
2019-03-01T18:54:48.967Z,92.60
2019-03-01T18:57:29.975Z,94.43
2019-03-01T19:00:10.714Z,93.70
2019-03-01T19:02:51.313Z,93.90
2019-03-01T19:05:32.087Z,98.67
2019-03-01T19:08:12.799Z,108.47
2019-03-01T19:10:54.451Z,114.00
2019-03-01T19:13:35.032Z,114.80
2019-03-01T19:16:15.685Z,113.20
2019-03-01T19:18:56.417Z,119.47
2019-03-01T19:21:37.261Z,119.83
2019-03-01T19:24:18.227Z,111.20
2019-03-01T19:26:59.016Z,114.53
2019-03-01T19:29:39.741Z,130.60
2019-03-01T19:32:23.647Z,117.13
2019-03-01T19:35:03.060Z,119.57
2019-03-01T19:37:45.854Z,126.20
2019-03-01T19:40:26.255Z,130.30
2019-03-01T19:43:10.159Z,114.63
2019-03-01T19:45:48.987Z,119.37
2019-03-01T19:48:29.907Z,119.43
2019-03-01T19:51:10.847Z,117.67
2019-03-01T19:53:51.343Z,120.63
2019-03-01T19:56:32.353Z,111.20
2019-03-01T19:59:12.868Z,120.43
2019-03-01T20:01:56.161Z,108.77
2019-03-01T20:04:36.621Z,127.83
2019-03-01T20:07:19.784Z,113.77
2019-03-01T20:09:59.556Z,120.93
2019-03-01T20:12:41.695Z,109.70
2019-03-01T20:15:22.792Z,111.20
2019-03-01T20:18:06.740Z,110.53
2019-03-01T20:20:46.142Z,110.03
2019-03-01T20:23:26.590Z,108.50
2019-03-01T20:26:09.207Z,122.63
2019-03-01T20:28:50.548Z,115.00
2019-03-01T20:31:32.536Z,108.40
2019-03-01T20:34:13.307Z,117.70
2019-03-01T20:36:54.159Z,102.53
2019-03-01T20:39:35.001Z,105.33
2019-03-01T20:42:17.769Z,105.17
2019-03-01T20:44:58.236Z,96.43
2019-03-01T20:47:38.787Z,102.73
2019-03-01T20:50:19.703Z,102.50
2019-03-01T20:53:00.403Z,104.43
2019-03-01T20:55:41.351Z,113.93
2019-03-01T20:58:22.249Z,102.77
2019-03-01T21:01:02.969Z,109.00
2019-03-01T21:03:43.667Z,107.63
2019-03-01T21:06:24.214Z,99.37
2019-03-01T21:09:06.992Z,87.93
2019-03-01T21:11:47.628Z,105.83
2019-03-01T21:14:16.071Z,93.13
2019-03-01T21:17:11.043Z,93.37
2019-03-01T21:19:58.819Z,86.90
2019-03-01T21:22:46.592Z,99.53
2019-03-01T21:25:35.834Z,79.30
2019-03-01T21:28:23.851Z,91.13
2019-03-01T21:31:11.639Z,82.13
2019-03-01T21:34:02.389Z,104.17
2019-03-01T21:36:48.912Z,86.33
2019-03-01T21:39:36.682Z,89.47
2019-03-01T21:42:24.447Z,93.70
2019-03-01T21:45:31.547Z,89.67
2019-03-01T21:48:12.703Z,92.43
2019-03-01T21:50:53.683Z,90.67
2019-03-01T21:53:36.432Z,94.33
2019-03-01T21:56:17.209Z,92.00
2019-03-01T21:58:58.012Z,90.40
2019-03-01T22:01:26.450Z,103.47
2019-03-01T22:04:14.511Z,78.97
2019-03-01T22:07:02.902Z,89.27
2019-03-01T22:09:52.038Z,85.40
2019-03-01T22:12:39.820Z,84.83
2019-03-01T22:15:28.054Z,89.30
2019-03-01T22:18:15.893Z,87.60
2019-03-01T22:21:03.700Z,94.30
2019-03-01T22:23:52.529Z,90.20
2019-03-01T22:26:41.004Z,92.00
2019-03-01T22:29:28.771Z,108.77
2019-03-01T22:32:16.608Z,91.17
2019-03-01T22:35:08.551Z,87.73
2019-03-01T22:37:35.203Z,93.83
2019-03-01T22:40:23.925Z,84.93
2019-03-01T22:43:12.476Z,79.00
2019-03-01T22:46:00.244Z,60.00
2019-03-01T22:48:47.061Z,55.63
2019-03-01T22:51:23.774Z,62.13
2019-03-01T22:53:52.248Z,63.23
2019-03-01T22:56:22.523Z,50.60
2019-03-01T22:58:50.932Z,53.53
2019-03-01T23:01:19.894Z,56.77
2019-03-01T23:03:51.551Z,50.23
2019-03-01T23:06:18.637Z,56.50
2019-03-01T23:08:47.089Z,51.97
2019-03-01T23:11:15.582Z,54.33
2019-03-01T23:13:44.035Z,52.37
2019-03-01T23:16:15.841Z,53.63
2019-03-01T23:18:42.891Z,54.43
2019-03-01T23:21:11.334Z,62.00
2019-03-01T23:23:39.784Z,51.40
2019-03-01T23:26:08.226Z,59.13
2019-03-01T23:28:36.692Z,55.70
2019-03-01T23:31:05.145Z,60.13
2019-03-01T23:33:33.571Z,58.03
2019-03-01T23:36:02.019Z,64.00
2019-03-01T23:38:30.449Z,64.20
2019-03-01T23:40:58.911Z,63.10
2019-03-01T23:43:27.660Z,60.10
2019-03-01T23:45:57.556Z,59.47
2019-03-01T23:48:25.986Z,53.70
2019-03-01T23:50:54.483Z,66.70
2019-03-01T23:53:22.901Z,65.47
2019-03-01T23:55:54.617Z,66.43
2019-03-01T23:58:21.506Z,62.27
